sensor_id;sensor_type;location;lat;lon;timestamp;P1;durP1;ratioP1;P2;durP2;ratioP2
21018;SDS011;10667;51.056;3.732;2022-08-01T00:01:36;8.30;;;4.65;;
21018;SDS011;10667;51.056;3.732;2022-08-01T00:04:02;7.65;;;4.75;;
21018;SDS011;10667;51.056;3.732;2022-08-01T00:06:28;9.43;;;4.88;;
21018;SDS011;10667;51.056;3.732;2022-08-01T00:08:53;12.63;;;5.13;;
21018;SDS011;10667;51.056;3.732;2022-08-01T00:11:19;10.32;;;5.18;;
21018;SDS011;10667;51.056;3.732;2022-08-01T00:13:45;11.88;;;5.65;;
21018;SDS011;10667;51.056;3.732;2022-08-01T00:16:11;11.20;;;5.75;;
21018;SDS011;10667;51.056;3.732;2022-08-01T00:18:36;9.55;;;5.40;;
21018;SDS011;10667;51.056;3.732;2022-08-01T00:21:03;12.27;;;6.57;;
21018;SDS011;10667;51.056;3.732;2022-08-01T00:23:29;11.98;;;7.80;;
21018;SDS011;10667;51.056;3.732;2022-08-01T00:25:55;18.45;;;7.22;;
21018;SDS011;10667;51.056;3.732;2022-08-01T00:28:20;16.55;;;7.50;;
21018;SDS011;10667;51.056;3.732;2022-08-01T00:30:46;14.20;;;7.80;;
21018;SDS011;10667;51.056;3.732;2022-08-01T00:33:12;15.82;;;7.88;;
21018;SDS011;10667;51.056;3.732;2022-08-01T00:35:37;12.30;;;7.80;;
21018;SDS011;10667;51.056;3.732;2022-08-01T00:38:03;18.58;;;9.05;;
21018;SDS011;10667;51.056;3.732;2022-08-01T00:40:29;17.83;;;8.73;;
21018;SDS011;10667;51.056;3.732;2022-08-01T00:42:54;19.65;;;9.00;;
21018;SDS011;10667;51.056;3.732;2022-08-01T00:45:20;18.25;;;8.93;;
21018;SDS011;10667;51.056;3.732;2022-08-01T00:47:46;18.33;;;8.88;;
21018;SDS011;10667;51.056;3.732;2022-08-01T00:50:12;19.35;;;10.15;;
21018;SDS011;10667;51.056;3.732;2022-08-01T00:52:38;20.35;;;9.85;;
21018;SDS011;10667;51.056;3.732;2022-08-01T00:55:05;18.80;;;9.93;;
21018;SDS011;10667;51.056;3.732;2022-08-01T00:57:31;24.55;;;11.50;;
21018;SDS011;10667;51.056;3.732;2022-08-01T00:59:57;23.13;;;11.43;;
21018;SDS011;10667;51.056;3.732;2022-08-01T01:02:23;25.65;;;11.73;;
21018;SDS011;10667;51.056;3.732;2022-08-01T01:04:48;22.27;;;10.98;;
21018;SDS011;10667;51.056;3.732;2022-08-01T01:12:37;24.30;;;13.25;;
21018;SDS011;10667;51.056;3.732;2022-08-01T01:15:30;24.95;;;12.82;;
21018;SDS011;10667;51.056;3.732;2022-08-01T01:20:46;27.35;;;13.50;;
21018;SDS011;10667;51.056;3.732;2022-08-01T01:26:11;29.63;;;14.40;;
21018;SDS011;10667;51.056;3.732;2022-08-01T01:31:13;27.63;;;13.82;;
21018;SDS011;10667;51.056;3.732;2022-08-01T01:33:41;23.55;;;12.70;;
21018;SDS011;10667;51.056;3.732;2022-08-01T01:36:09;28.08;;;15.80;;
21018;SDS011;10667;51.056;3.732;2022-08-01T01:38:42;22.38;;;15.10;;
21018;SDS011;10667;51.056;3.732;2022-08-01T01:41:11;28.52;;;16.08;;
21018;SDS011;10667;51.056;3.732;2022-08-01T01:43:37;26.65;;;15.25;;
21018;SDS011;10667;51.056;3.732;2022-08-01T01:46:05;30.98;;;15.45;;
21018;SDS011;10667;51.056;3.732;2022-08-01T01:48:32;27.25;;;14.48;;
21018;SDS011;10667;51.056;3.732;2022-08-01T01:51:00;23.38;;;12.65;;
21018;SDS011;10667;51.056;3.732;2022-08-01T01:53:26;20.08;;;10.57;;
21018;SDS011;10667;51.056;3.732;2022-08-01T01:55:55;19.10;;;9.07;;
21018;SDS011;10667;51.056;3.732;2022-08-01T01:58:23;14.68;;;7.38;;
21018;SDS011;10667;51.056;3.732;2022-08-01T02:00:51;17.88;;;7.63;;
21018;SDS011;10667;51.056;3.732;2022-08-01T02:03:19;14.10;;;7.90;;
21018;SDS011;10667;51.056;3.732;2022-08-01T02:05:47;12.18;;;7.22;;
21018;SDS011;10667;51.056;3.732;2022-08-01T02:08:14;16.85;;;6.57;;
21018;SDS011;10667;51.056;3.732;2022-08-01T02:10:41;13.30;;;6.85;;
21018;SDS011;10667;51.056;3.732;2022-08-01T02:13:30;12.70;;;6.60;;
21018;SDS011;10667;51.056;3.732;2022-08-01T02:15:57;14.88;;;6.72;;
21018;SDS011;10667;51.056;3.732;2022-08-01T02:18:23;13.55;;;6.28;;
21018;SDS011;10667;51.056;3.732;2022-08-01T02:20:49;12.30;;;6.97;;
21018;SDS011;10667;51.056;3.732;2022-08-01T02:23:17;10.68;;;5.82;;
21018;SDS011;10667;51.056;3.732;2022-08-01T02:25:46;12.77;;;6.35;;
21018;SDS011;10667;51.056;3.732;2022-08-01T02:28:15;13.95;;;6.45;;
21018;SDS011;10667;51.056;3.732;2022-08-01T02:30:50;13.32;;;5.70;;
21018;SDS011;10667;51.056;3.732;2022-08-01T02:33:17;13.73;;;6.13;;
21018;SDS011;10667;51.056;3.732;2022-08-01T02:35:46;11.15;;;5.90;;
21018;SDS011;10667;51.056;3.732;2022-08-01T02:38:14;9.60;;;5.50;;
21018;SDS011;10667;51.056;3.732;2022-08-01T02:40:43;11.85;;;5.55;;
21018;SDS011;10667;51.056;3.732;2022-08-01T02:43:12;11.52;;;4.95;;
21018;SDS011;10667;51.056;3.732;2022-08-01T02:45:42;7.22;;;4.57;;
21018;SDS011;10667;51.056;3.732;2022-08-01T02:48:13;7.30;;;4.50;;
21018;SDS011;10667;51.056;3.732;2022-08-01T02:50:42;10.52;;;5.50;;
21018;SDS011;10667;51.056;3.732;2022-08-01T02:53:10;6.40;;;4.15;;
21018;SDS011;10667;51.056;3.732;2022-08-01T02:55:38;7.53;;;4.25;;
21018;SDS011;10667;51.056;3.732;2022-08-01T02:58:06;11.40;;;3.97;;
21018;SDS011;10667;51.056;3.732;2022-08-01T03:00:33;6.25;;;3.03;;
21018;SDS011;10667;51.056;3.732;2022-08-01T03:03:00;5.60;;;2.70;;
21018;SDS011;10667;51.056;3.732;2022-08-01T03:05:28;5.57;;;2.80;;
21018;SDS011;10667;51.056;3.732;2022-08-01T03:07:57;5.38;;;2.78;;
21018;SDS011;10667;51.056;3.732;2022-08-01T03:10:26;5.05;;;2.45;;
21018;SDS011;10667;51.056;3.732;2022-08-01T03:12:53;4.47;;;2.92;;
21018;SDS011;10667;51.056;3.732;2022-08-01T03:15:22;3.65;;;2.13;;
21018;SDS011;10667;51.056;3.732;2022-08-01T03:17:49;3.72;;;2.53;;
21018;SDS011;10667;51.056;3.732;2022-08-01T03:20:18;4.05;;;2.42;;
21018;SDS011;10667;51.056;3.732;2022-08-01T03:22:45;5.43;;;2.70;;
21018;SDS011;10667;51.056;3.732;2022-08-01T03:25:16;6.57;;;2.25;;
21018;SDS011;10667;51.056;3.732;2022-08-01T03:27:43;3.40;;;2.40;;
21018;SDS011;10667;51.056;3.732;2022-08-01T03:30:13;5.00;;;2.75;;
21018;SDS011;10667;51.056;3.732;2022-08-01T03:32:40;5.22;;;2.80;;
21018;SDS011;10667;51.056;3.732;2022-08-01T03:35:06;3.30;;;2.63;;
21018;SDS011;10667;51.056;3.732;2022-08-01T03:37:34;4.35;;;2.60;;
21018;SDS011;10667;51.056;3.732;2022-08-01T03:40:11;3.65;;;2.40;;
21018;SDS011;10667;51.056;3.732;2022-08-01T03:42:45;5.03;;;2.17;;
21018;SDS011;10667;51.056;3.732;2022-08-01T03:45:25;4.53;;;2.55;;
21018;SDS011;10667;51.056;3.732;2022-08-01T03:47:59;3.80;;;2.22;;
21018;SDS011;10667;51.056;3.732;2022-08-01T03:50:26;4.63;;;2.20;;
21018;SDS011;10667;51.056;3.732;2022-08-01T03:52:54;4.18;;;2.60;;
21018;SDS011;10667;51.056;3.732;2022-08-01T03:55:23;4.60;;;3.00;;
21018;SDS011;10667;51.056;3.732;2022-08-01T03:57:50;4.90;;;2.40;;
21018;SDS011;10667;51.056;3.732;2022-08-01T04:00:16;5.20;;;2.70;;
21018;SDS011;10667;51.056;3.732;2022-08-01T04:02:44;4.00;;;2.60;;
21018;SDS011;10667;51.056;3.732;2022-08-01T04:05:14;6.70;;;2.90;;
21018;SDS011;10667;51.056;3.732;2022-08-01T04:07:44;6.32;;;2.58;;
21018;SDS011;10667;51.056;3.732;2022-08-01T04:10:12;3.95;;;2.83;;
21018;SDS011;10667;51.056;3.732;2022-08-01T04:12:38;5.25;;;2.65;;
21018;SDS011;10667;51.056;3.732;2022-08-01T04:15:04;5.70;;;2.70;;
21018;SDS011;10667;51.056;3.732;2022-08-01T04:17:30;5.22;;;3.03;;
21018;SDS011;10667;51.056;3.732;2022-08-01T04:19:56;5.55;;;2.90;;
21018;SDS011;10667;51.056;3.732;2022-08-01T04:22:21;6.18;;;2.80;;
21018;SDS011;10667;51.056;3.732;2022-08-01T04:24:48;3.60;;;2.55;;
21018;SDS011;10667;51.056;3.732;2022-08-01T04:27:19;4.28;;;2.38;;
21018;SDS011;10667;51.056;3.732;2022-08-01T04:29:49;3.80;;;2.47;;
21018;SDS011;10667;51.056;3.732;2022-08-01T04:32:20;3.72;;;2.65;;
21018;SDS011;10667;51.056;3.732;2022-08-01T04:34:47;5.22;;;3.55;;
21018;SDS011;10667;51.056;3.732;2022-08-01T04:37:14;5.88;;;3.05;;
21018;SDS011;10667;51.056;3.732;2022-08-01T04:39:44;4.57;;;2.95;;
21018;SDS011;10667;51.056;3.732;2022-08-01T04:42:11;7.65;;;2.95;;
21018;SDS011;10667;51.056;3.732;2022-08-01T04:44:40;3.75;;;2.42;;
21018;SDS011;10667;51.056;3.732;2022-08-01T04:47:06;3.83;;;2.67;;
21018;SDS011;10667;51.056;3.732;2022-08-01T04:49:34;3.75;;;2.65;;
21018;SDS011;10667;51.056;3.732;2022-08-01T04:52:00;3.20;;;2.50;;
21018;SDS011;10667;51.056;3.732;2022-08-01T04:54:26;4.53;;;2.58;;
21018;SDS011;10667;51.056;3.732;2022-08-01T04:56:56;3.20;;;2.35;;
21018;SDS011;10667;51.056;3.732;2022-08-01T04:59:25;4.80;;;2.63;;
21018;SDS011;10667;51.056;3.732;2022-08-01T05:04:43;6.25;;;2.80;;
21018;SDS011;10667;51.056;3.732;2022-08-01T05:07:10;5.63;;;3.00;;
21018;SDS011;10667;51.056;3.732;2022-08-01T05:09:37;6.68;;;3.33;;
21018;SDS011;10667;51.056;3.732;2022-08-01T05:12:04;5.07;;;2.63;;
21018;SDS011;10667;51.056;3.732;2022-08-01T05:14:31;3.35;;;2.80;;
21018;SDS011;10667;51.056;3.732;2022-08-01T05:17:00;4.13;;;2.78;;
21018;SDS011;10667;51.056;3.732;2022-08-01T05:19:31;3.25;;;2.40;;
21018;SDS011;10667;51.056;3.732;2022-08-01T05:22:02;3.42;;;2.60;;
21018;SDS011;10667;51.056;3.732;2022-08-01T05:24:32;4.82;;;2.78;;
21018;SDS011;10667;51.056;3.732;2022-08-01T05:27:05;4.40;;;2.70;;
21018;SDS011;10667;51.056;3.732;2022-08-01T05:29:32;3.67;;;2.95;;
21018;SDS011;10667;51.056;3.732;2022-08-01T05:31:58;4.75;;;2.60;;
21018;SDS011;10667;51.056;3.732;2022-08-01T05:34:25;5.57;;;2.80;;
21018;SDS011;10667;51.056;3.732;2022-08-01T05:36:51;5.05;;;2.60;;
21018;SDS011;10667;51.056;3.732;2022-08-01T05:39:17;5.15;;;2.55;;
21018;SDS011;10667;51.056;3.732;2022-08-01T05:41:43;3.85;;;2.30;;
21018;SDS011;10667;51.056;3.732;2022-08-01T05:44:09;5.93;;;2.80;;
21018;SDS011;10667;51.056;3.732;2022-08-01T05:46:35;2.92;;;2.10;;
21018;SDS011;10667;51.056;3.732;2022-08-01T05:49:01;3.42;;;1.95;;
21018;SDS011;10667;51.056;3.732;2022-08-01T05:51:29;2.85;;;2.13;;
21018;SDS011;10667;51.056;3.732;2022-08-01T05:53:55;5.15;;;2.75;;
21018;SDS011;10667;51.056;3.732;2022-08-01T05:56:21;3.90;;;2.65;;
21018;SDS011;10667;51.056;3.732;2022-08-01T05:58:47;4.00;;;2.58;;
21018;SDS011;10667;51.056;3.732;2022-08-01T06:01:14;6.43;;;2.88;;
21018;SDS011;10667;51.056;3.732;2022-08-01T06:03:40;7.72;;;2.78;;
21018;SDS011;10667;51.056;3.732;2022-08-01T06:06:05;3.38;;;2.55;;
21018;SDS011;10667;51.056;3.732;2022-08-01T06:08:31;4.85;;;2.40;;
21018;SDS011;10667;51.056;3.732;2022-08-01T06:10:57;3.72;;;2.47;;
21018;SDS011;10667;51.056;3.732;2022-08-01T06:13:23;3.60;;;2.35;;
21018;SDS011;10667;51.056;3.732;2022-08-01T06:15:49;2.78;;;2.13;;
21018;SDS011;10667;51.056;3.732;2022-08-01T06:18:15;5.82;;;2.58;;
21018;SDS011;10667;51.056;3.732;2022-08-01T06:20:41;3.22;;;2.20;;
21018;SDS011;10667;51.056;3.732;2022-08-01T06:23:07;4.50;;;2.20;;
21018;SDS011;10667;51.056;3.732;2022-08-01T06:25:33;3.80;;;3.15;;
21018;SDS011;10667;51.056;3.732;2022-08-01T06:27:59;4.75;;;2.92;;
21018;SDS011;10667;51.056;3.732;2022-08-01T06:30:25;4.78;;;2.45;;
21018;SDS011;10667;51.056;3.732;2022-08-01T06:32:51;3.58;;;2.42;;
21018;SDS011;10667;51.056;3.732;2022-08-01T06:35:17;2.95;;;2.00;;
21018;SDS011;10667;51.056;3.732;2022-08-01T06:37:43;3.85;;;1.73;;
21018;SDS011;10667;51.056;3.732;2022-08-01T06:40:12;3.30;;;1.98;;
21018;SDS011;10667;51.056;3.732;2022-08-01T06:42:38;3.83;;;1.65;;
21018;SDS011;10667;51.056;3.732;2022-08-01T06:45:04;5.00;;;1.80;;
21018;SDS011;10667;51.056;3.732;2022-08-01T06:47:32;2.28;;;1.60;;
21018;SDS011;10667;51.056;3.732;2022-08-01T06:49:57;4.75;;;1.65;;
21018;SDS011;10667;51.056;3.732;2022-08-01T06:52:23;4.05;;;1.77;;
21018;SDS011;10667;51.056;3.732;2022-08-01T06:54:49;2.53;;;1.75;;
21018;SDS011;10667;51.056;3.732;2022-08-01T06:57:15;4.50;;;1.85;;
21018;SDS011;10667;51.056;3.732;2022-08-01T06:59:41;22.35;;;3.58;;
21018;SDS011;10667;51.056;3.732;2022-08-01T07:02:06;9.90;;;1.88;;
21018;SDS011;10667;51.056;3.732;2022-08-01T07:04:32;2.50;;;1.55;;
21018;SDS011;10667;51.056;3.732;2022-08-01T07:06:59;4.97;;;1.75;;
21018;SDS011;10667;51.056;3.732;2022-08-01T07:09:25;1.90;;;1.60;;
21018;SDS011;10667;51.056;3.732;2022-08-01T07:11:51;2.65;;;1.65;;
21018;SDS011;10667;51.056;3.732;2022-08-01T07:14:18;3.03;;;1.30;;
21018;SDS011;10667;51.056;3.732;2022-08-01T07:16:44;5.05;;;1.65;;
21018;SDS011;10667;51.056;3.732;2022-08-01T07:19:10;2.88;;;1.40;;
21018;SDS011;10667;51.056;3.732;2022-08-01T07:21:36;1.70;;;1.23;;
21018;SDS011;10667;51.056;3.732;2022-08-01T07:24:03;2.60;;;1.40;;
21018;SDS011;10667;51.056;3.732;2022-08-01T07:26:29;2.67;;;1.40;;
21018;SDS011;10667;51.056;3.732;2022-08-01T07:28:55;2.90;;;1.33;;
21018;SDS011;10667;51.056;3.732;2022-08-01T07:31:20;2.13;;;1.10;;
21018;SDS011;10667;51.056;3.732;2022-08-01T07:33:46;1.95;;;1.00;;
21018;SDS011;10667;51.056;3.732;2022-08-01T07:36:12;2.42;;;1.27;;
21018;SDS011;10667;51.056;3.732;2022-08-01T07:38:37;3.53;;;1.80;;
21018;SDS011;10667;51.056;3.732;2022-08-01T07:41:03;3.00;;;2.00;;
21018;SDS011;10667;51.056;3.732;2022-08-01T07:43:29;3.88;;;1.60;;
21018;SDS011;10667;51.056;3.732;2022-08-01T07:45:54;2.95;;;1.20;;
21018;SDS011;10667;51.056;3.732;2022-08-01T07:48:20;1.95;;;1.30;;
21018;SDS011;10667;51.056;3.732;2022-08-01T07:50:49;3.45;;;1.27;;
21018;SDS011;10667;51.056;3.732;2022-08-01T07:53:15;2.22;;;1.05;;
21018;SDS011;10667;51.056;3.732;2022-08-01T07:55:41;1.40;;;1.10;;
21018;SDS011;10667;51.056;3.732;2022-08-01T07:58:07;3.10;;;1.33;;
21018;SDS011;10667;51.056;3.732;2022-08-01T08:00:33;2.03;;;1.00;;
21018;SDS011;10667;51.056;3.732;2022-08-01T08:02:58;2.05;;;1.05;;
21018;SDS011;10667;51.056;3.732;2022-08-01T08:05:24;2.65;;;1.48;;
21018;SDS011;10667;51.056;3.732;2022-08-01T08:07:51;3.38;;;1.20;;
21018;SDS011;10667;51.056;3.732;2022-08-01T08:10:16;5.50;;;1.17;;
21018;SDS011;10667;51.056;3.732;2022-08-01T08:12:42;1.42;;;1.00;;
21018;SDS011;10667;51.056;3.732;2022-08-01T08:15:08;1.45;;;1.00;;
21018;SDS011;10667;51.056;3.732;2022-08-01T08:17:34;1.50;;;1.00;;
21018;SDS011;10667;51.056;3.732;2022-08-01T08:20:00;2.53;;;1.48;;
21018;SDS011;10667;51.056;3.732;2022-08-01T08:22:27;1.10;;;1.00;;
21018;SDS011;10667;51.056;3.732;2022-08-01T08:24:53;2.17;;;1.67;;
21018;SDS011;10667;51.056;3.732;2022-08-01T08:27:19;2.97;;;1.58;;
21018;SDS011;10667;51.056;3.732;2022-08-01T08:29:44;2.22;;;1.55;;
21018;SDS011;10667;51.056;3.732;2022-08-01T08:32:10;2.30;;;2.10;;
21018;SDS011;10667;51.056;3.732;2022-08-01T08:34:36;2.33;;;2.13;;
21018;SDS011;10667;51.056;3.732;2022-08-01T08:37:02;1.65;;;1.40;;
21018;SDS011;10667;51.056;3.732;2022-08-01T08:39:28;2.30;;;1.80;;
21018;SDS011;10667;51.056;3.732;2022-08-01T08:41:56;2.10;;;1.90;;
21018;SDS011;10667;51.056;3.732;2022-08-01T08:44:24;2.78;;;1.92;;
21018;SDS011;10667;51.056;3.732;2022-08-01T08:46:50;1.85;;;1.75;;
21018;SDS011;10667;51.056;3.732;2022-08-01T08:49:21;2.10;;;1.90;;
21018;SDS011;10667;51.056;3.732;2022-08-01T08:51:51;5.90;;;1.40;;
21018;SDS011;10667;51.056;3.732;2022-08-01T08:54:18;1.85;;;0.93;;
21018;SDS011;10667;51.056;3.732;2022-08-01T08:56:47;1.27;;;1.05;;
21018;SDS011;10667;51.056;3.732;2022-08-01T08:59:14;1.15;;;1.02;;
21018;SDS011;10667;51.056;3.732;2022-08-01T09:01:40;3.78;;;1.00;;
21018;SDS011;10667;51.056;3.732;2022-08-01T09:04:06;1.40;;;0.80;;
21018;SDS011;10667;51.056;3.732;2022-08-01T09:06:32;0.88;;;0.68;;
21018;SDS011;10667;51.056;3.732;2022-08-01T09:08:58;3.25;;;1.00;;
21018;SDS011;10667;51.056;3.732;2022-08-01T09:11:25;1.13;;;0.90;;
21018;SDS011;10667;51.056;3.732;2022-08-01T09:16:43;1.48;;;1.13;;
21018;SDS011;10667;51.056;3.732;2022-08-01T09:19:11;3.40;;;1.40;;
21018;SDS011;10667;51.056;3.732;2022-08-01T09:21:58;3.85;;;1.30;;
21018;SDS011;10667;51.056;3.732;2022-08-01T09:24:25;1.48;;;1.10;;
21018;SDS011;10667;51.056;3.732;2022-08-01T09:26:52;1.25;;;1.00;;
21018;SDS011;10667;51.056;3.732;2022-08-01T09:29:23;1.20;;;0.95;;
21018;SDS011;10667;51.056;3.732;2022-08-01T09:31:50;2.22;;;1.13;;
21018;SDS011;10667;51.056;3.732;2022-08-01T09:34:23;1.13;;;1.00;;
21018;SDS011;10667;51.056;3.732;2022-08-01T09:37:02;3.65;;;1.10;;
21018;SDS011;10667;51.056;3.732;2022-08-01T09:39:33;2.15;;;1.27;;
21018;SDS011;10667;51.056;3.732;2022-08-01T09:42:18;1.65;;;1.00;;
21018;SDS011;10667;51.056;3.732;2022-08-01T09:44:47;2.63;;;1.15;;
21018;SDS011;10667;51.056;3.732;2022-08-01T09:47:14;1.58;;;0.80;;
21018;SDS011;10667;51.056;3.732;2022-08-01T09:49:41;2.50;;;1.30;;
21018;SDS011;10667;51.056;3.732;2022-08-01T09:52:13;1.42;;;0.90;;
21018;SDS011;10667;51.056;3.732;2022-08-01T09:54:41;2.45;;;1.30;;
21018;SDS011;10667;51.056;3.732;2022-08-01T09:57:17;3.85;;;1.30;;
21018;SDS011;10667;51.056;3.732;2022-08-01T09:59:45;2.55;;;1.27;;
21018;SDS011;10667;51.056;3.732;2022-08-01T10:02:13;3.50;;;1.63;;
21018;SDS011;10667;51.056;3.732;2022-08-01T10:04:51;2.63;;;1.00;;
21018;SDS011;10667;51.056;3.732;2022-08-01T10:07:18;2.47;;;1.05;;
21018;SDS011;10667;51.056;3.732;2022-08-01T10:09:44;2.63;;;1.25;;
21018;SDS011;10667;51.056;3.732;2022-08-01T10:12:16;64.00;;;19.90;;
21018;SDS011;10667;51.056;3.732;2022-08-01T10:14:44;120.38;;;38.70;;
21018;SDS011;10667;51.056;3.732;2022-08-01T10:17:12;99.88;;;25.85;;
21018;SDS011;10667;51.056;3.732;2022-08-01T10:19:40;77.57;;;21.27;;
21018;SDS011;10667;51.056;3.732;2022-08-01T10:22:13;6.15;;;2.10;;
21018;SDS011;10667;51.056;3.732;2022-08-01T10:24:43;2.60;;;1.55;;
21018;SDS011;10667;51.056;3.732;2022-08-01T10:27:14;15.98;;;4.32;;
21018;SDS011;10667;51.056;3.732;2022-08-01T10:29:49;6.90;;;1.98;;
21018;SDS011;10667;51.056;3.732;2022-08-01T10:32:20;2.83;;;1.45;;
21018;SDS011;10667;51.056;3.732;2022-08-01T10:34:46;1.98;;;1.30;;
21018;SDS011;10667;51.056;3.732;2022-08-01T10:37:15;1.92;;;1.20;;
21018;SDS011;10667;51.056;3.732;2022-08-01T10:39:42;5.13;;;1.20;;
21018;SDS011;10667;51.056;3.732;2022-08-01T10:42:09;4.13;;;0.95;;
21018;SDS011;10667;51.056;3.732;2022-08-01T10:44:36;2.25;;;1.55;;
21018;SDS011;10667;51.056;3.732;2022-08-01T10:47:10;2.83;;;1.40;;
21018;SDS011;10667;51.056;3.732;2022-08-01T10:49:43;6.25;;;1.73;;
21018;SDS011;10667;51.056;3.732;2022-08-01T10:52:19;4.20;;;1.40;;
21018;SDS011;10667;51.056;3.732;2022-08-01T10:54:45;1.75;;;1.20;;
21018;SDS011;10667;51.056;3.732;2022-08-01T10:57:12;4.75;;;1.60;;
21018;SDS011;10667;51.056;3.732;2022-08-01T10:59:48;1.67;;;1.15;;
21018;SDS011;10667;51.056;3.732;2022-08-01T11:02:25;3.38;;;1.40;;
21018;SDS011;10667;51.056;3.732;2022-08-01T11:05:19;2.67;;;1.25;;
21018;SDS011;10667;51.056;3.732;2022-08-01T11:07:47;2.13;;;1.20;;
21018;SDS011;10667;51.056;3.732;2022-08-01T11:10:37;5.13;;;1.45;;
21018;SDS011;10667;51.056;3.732;2022-08-01T11:13:04;4.15;;;1.30;;
21018;SDS011;10667;51.056;3.732;2022-08-01T11:15:33;2.38;;;1.20;;
21018;SDS011;10667;51.056;3.732;2022-08-01T11:18:00;2.20;;;1.40;;
21018;SDS011;10667;51.056;3.732;2022-08-01T11:20:29;3.10;;;1.50;;
21018;SDS011;10667;51.056;3.732;2022-08-01T11:30:39;2.72;;;1.25;;
21018;SDS011;10667;51.056;3.732;2022-08-01T11:33:05;3.63;;;1.48;;
21018;SDS011;10667;51.056;3.732;2022-08-01T11:35:31;3.08;;;1.30;;
21018;SDS011;10667;51.056;3.732;2022-08-01T11:38:22;3.25;;;1.60;;
21018;SDS011;10667;51.056;3.732;2022-08-01T11:41:10;3.58;;;1.95;;
21018;SDS011;10667;51.056;3.732;2022-08-01T11:44:23;2.75;;;1.35;;
21018;SDS011;10667;51.056;3.732;2022-08-01T11:49:56;1.73;;;1.27;;
21018;SDS011;10667;51.056;3.732;2022-08-01T11:52:11;4.13;;;1.30;;
21018;SDS011;10667;51.056;3.732;2022-08-01T11:54:45;1.85;;;1.10;;
21018;SDS011;10667;51.056;3.732;2022-08-01T11:57:25;2.25;;;1.20;;
21018;SDS011;10667;51.056;3.732;2022-08-01T12:00:12;1.73;;;1.20;;
21018;SDS011;10667;51.056;3.732;2022-08-01T12:02:39;3.78;;;1.42;;
21018;SDS011;10667;51.056;3.732;2022-08-01T12:05:06;1.65;;;1.10;;
21018;SDS011;10667;51.056;3.732;2022-08-01T12:07:34;1.95;;;1.17;;
21018;SDS011;10667;51.056;3.732;2022-08-01T12:10:08;1.52;;;1.00;;
21018;SDS011;10667;51.056;3.732;2022-08-01T12:12:35;2.17;;;1.15;;
21018;SDS011;10667;51.056;3.732;2022-08-01T12:15:08;1.67;;;0.90;;
21018;SDS011;10667;51.056;3.732;2022-08-01T12:17:38;2.97;;;1.08;;
21018;SDS011;10667;51.056;3.732;2022-08-01T12:20:13;2.17;;;1.23;;
21018;SDS011;10667;51.056;3.732;2022-08-01T12:22:45;2.50;;;1.20;;
21018;SDS011;10667;51.056;3.732;2022-08-01T12:25:15;2.22;;;1.63;;
21018;SDS011;10667;51.056;3.732;2022-08-01T12:27:43;2.30;;;1.08;;
21018;SDS011;10667;51.056;3.732;2022-08-01T12:30:15;2.30;;;1.23;;
21018;SDS011;10667;51.056;3.732;2022-08-01T12:32:47;4.47;;;1.25;;
21018;SDS011;10667;51.056;3.732;2022-08-01T12:35:14;3.13;;;1.23;;
21018;SDS011;10667;51.056;3.732;2022-08-01T12:37:45;2.80;;;1.00;;
21018;SDS011;10667;51.056;3.732;2022-08-01T12:42:40;2.28;;;1.13;;
21018;SDS011;10667;51.056;3.732;2022-08-01T12:45:10;3.42;;;1.08;;
21018;SDS011;10667;51.056;3.732;2022-08-01T12:47:40;2.00;;;0.88;;
21018;SDS011;10667;51.056;3.732;2022-08-01T12:50:08;3.47;;;1.10;;
21018;SDS011;10667;51.056;3.732;2022-08-01T12:52:38;2.80;;;1.02;;
21018;SDS011;10667;51.056;3.732;2022-08-01T12:55:05;2.75;;;1.00;;
21018;SDS011;10667;51.056;3.732;2022-08-01T12:57:39;2.78;;;1.20;;
21018;SDS011;10667;51.056;3.732;2022-08-01T13:02:35;1.42;;;1.02;;
21018;SDS011;10667;51.056;3.732;2022-08-01T13:05:02;1.40;;;1.10;;
21018;SDS011;10667;51.056;3.732;2022-08-01T13:10:28;5.30;;;2.30;;
21018;SDS011;10667;51.056;3.732;2022-08-01T13:12:56;6.75;;;1.40;;
21018;SDS011;10667;51.056;3.732;2022-08-01T13:15:24;4.40;;;1.52;;
21018;SDS011;10667;51.056;3.732;2022-08-01T13:17:56;3.40;;;1.45;;
21018;SDS011;10667;51.056;3.732;2022-08-01T13:20:24;2.42;;;1.40;;
21018;SDS011;10667;51.056;3.732;2022-08-01T13:23:12;3.38;;;1.80;;
21018;SDS011;10667;51.056;3.732;2022-08-01T13:25:52;2.58;;;1.40;;
21018;SDS011;10667;51.056;3.732;2022-08-01T13:28:23;2.83;;;1.58;;
21018;SDS011;10667;51.056;3.732;2022-08-01T13:31:02;4.60;;;1.27;;
21018;SDS011;10667;51.056;3.732;2022-08-01T13:33:47;2.72;;;1.25;;
21018;SDS011;10667;51.056;3.732;2022-08-01T13:36:13;3.60;;;1.35;;
21018;SDS011;10667;51.056;3.732;2022-08-01T13:38:40;1.83;;;1.10;;
21018;SDS011;10667;51.056;3.732;2022-08-01T13:41:25;2.45;;;1.00;;
21018;SDS011;10667;51.056;3.732;2022-08-01T13:43:51;2.10;;;1.00;;
21018;SDS011;10667;51.056;3.732;2022-08-01T13:46:16;2.85;;;1.17;;
21018;SDS011;10667;51.056;3.732;2022-08-01T13:48:42;2.72;;;0.88;;
21018;SDS011;10667;51.056;3.732;2022-08-01T13:51:08;4.32;;;1.10;;
21018;SDS011;10667;51.056;3.732;2022-08-01T13:53:34;3.97;;;1.00;;
21018;SDS011;10667;51.056;3.732;2022-08-01T13:56:00;1.83;;;0.80;;
21018;SDS011;10667;51.056;3.732;2022-08-01T13:58:26;2.85;;;1.00;;
21018;SDS011;10667;51.056;3.732;2022-08-01T14:00:53;1.85;;;0.95;;
21018;SDS011;10667;51.056;3.732;2022-08-01T14:03:18;2.03;;;1.08;;
21018;SDS011;10667;51.056;3.732;2022-08-01T14:05:44;7.50;;;2.58;;
21018;SDS011;10667;51.056;3.732;2022-08-01T14:08:10;30.63;;;6.03;;
21018;SDS011;10667;51.056;3.732;2022-08-01T14:10:36;29.92;;;8.93;;
21018;SDS011;10667;51.056;3.732;2022-08-01T14:13:02;5.03;;;1.40;;
21018;SDS011;10667;51.056;3.732;2022-08-01T14:15:28;3.58;;;1.00;;
21018;SDS011;10667;51.056;3.732;2022-08-01T14:17:55;5.05;;;1.02;;
21018;SDS011;10667;51.056;3.732;2022-08-01T14:20:20;3.30;;;0.80;;
21018;SDS011;10667;51.056;3.732;2022-08-01T14:22:46;3.17;;;0.88;;
21018;SDS011;10667;51.056;3.732;2022-08-01T14:25:12;1.20;;;0.68;;
21018;SDS011;10667;51.056;3.732;2022-08-01T14:27:38;1.48;;;0.70;;
21018;SDS011;10667;51.056;3.732;2022-08-01T14:30:06;1.90;;;0.98;;
21018;SDS011;10667;51.056;3.732;2022-08-01T14:32:32;1.70;;;0.80;;
21018;SDS011;10667;51.056;3.732;2022-08-01T14:34:59;2.25;;;0.90;;
21018;SDS011;10667;51.056;3.732;2022-08-01T14:37:28;3.60;;;0.77;;
21018;SDS011;10667;51.056;3.732;2022-08-01T14:39:54;1.25;;;0.80;;
21018;SDS011;10667;51.056;3.732;2022-08-01T14:42:23;3.97;;;1.00;;
21018;SDS011;10667;51.056;3.732;2022-08-01T14:44:49;3.50;;;1.35;;
21018;SDS011;10667;51.056;3.732;2022-08-01T14:47:15;1.42;;;0.80;;
21018;SDS011;10667;51.056;3.732;2022-08-01T14:49:41;1.25;;;0.73;;
21018;SDS011;10667;51.056;3.732;2022-08-01T14:52:07;1.42;;;0.85;;
21018;SDS011;10667;51.056;3.732;2022-08-01T14:54:32;2.30;;;0.93;;
21018;SDS011;10667;51.056;3.732;2022-08-01T14:56:58;1.45;;;0.90;;
21018;SDS011;10667;51.056;3.732;2022-08-01T14:59:24;39.15;;;2.58;;
21018;SDS011;10667;51.056;3.732;2022-08-01T15:01:50;4.75;;;0.80;;
21018;SDS011;10667;51.056;3.732;2022-08-01T15:04:15;0.60;;;0.55;;
21018;SDS011;10667;51.056;3.732;2022-08-01T15:06:42;1.70;;;0.82;;
21018;SDS011;10667;51.056;3.732;2022-08-01T15:09:08;3.65;;;0.93;;
21018;SDS011;10667;51.056;3.732;2022-08-01T15:11:34;2.67;;;1.10;;
21018;SDS011;10667;51.056;3.732;2022-08-01T15:13:59;7.63;;;1.33;;
21018;SDS011;10667;51.056;3.732;2022-08-01T15:16:44;6.50;;;0.95;;
21018;SDS011;10667;51.056;3.732;2022-08-01T15:19:10;0.90;;;0.77;;
21018;SDS011;10667;51.056;3.732;2022-08-01T15:21:35;2.20;;;0.90;;
21018;SDS011;10667;51.056;3.732;2022-08-01T15:24:01;2.60;;;0.90;;
21018;SDS011;10667;51.056;3.732;2022-08-01T15:26:27;2.35;;;1.15;;
21018;SDS011;10667;51.056;3.732;2022-08-01T15:28:54;1.35;;;0.80;;
21018;SDS011;10667;51.056;3.732;2022-08-01T15:31:20;2.33;;;0.85;;